createdAt,value
2018-11-28T00:02:11.046Z,7.20
2018-11-28T00:04:41.037Z,7.13
2018-11-28T00:07:26.762Z,7.13
2018-11-28T00:09:56.670Z,7.16
2018-11-28T00:12:26.678Z,7.19
2018-11-28T00:14:56.586Z,7.16
2018-11-28T00:17:26.472Z,7.01
2018-11-28T00:19:56.382Z,6.96
2018-11-28T00:22:26.341Z,6.89
2018-11-28T00:24:56.254Z,6.86
2018-11-28T00:27:26.169Z,6.83
2018-11-28T00:29:56.074Z,6.83
2018-11-28T00:32:25.977Z,6.79
2018-11-28T00:34:55.889Z,6.89
2018-11-28T00:37:25.862Z,6.85
2018-11-28T00:39:55.701Z,6.88
2018-11-28T00:42:31.290Z,6.87
2018-11-28T00:45:01.184Z,6.80
2018-11-28T00:47:31.097Z,6.83
2018-11-28T00:50:01.053Z,6.83
2018-11-28T00:52:30.929Z,6.84
2018-11-28T00:55:00.829Z,6.90
2018-11-28T00:57:30.805Z,6.86
2018-11-28T01:00:00.777Z,6.77
2018-11-28T01:02:30.694Z,6.73
2018-11-28T01:05:00.601Z,6.55
2018-11-28T01:07:30.609Z,6.70
2018-11-28T01:10:00.541Z,6.74
2018-11-28T01:12:30.452Z,6.77
2018-11-28T01:15:00.355Z,6.74
2018-11-28T01:17:30.306Z,6.56
2018-11-28T01:20:00.249Z,6.56
2018-11-28T01:22:30.175Z,6.47
2018-11-28T01:25:00.087Z,6.57
2018-11-28T01:27:30.006Z,6.61
2018-11-28T01:29:59.978Z,6.64
2018-11-28T01:32:29.881Z,6.60
2018-11-28T01:34:59.776Z,6.38
2018-11-28T01:37:29.817Z,6.31
2018-11-28T01:39:59.719Z,6.27
2018-11-28T01:42:29.900Z,6.35
2018-11-28T01:44:59.834Z,6.36
2018-11-28T01:47:29.744Z,6.47
2018-11-28T01:49:59.647Z,6.48
2018-11-28T01:52:29.666Z,6.62
2018-11-28T01:54:59.565Z,6.60
2018-11-28T01:57:29.482Z,6.67
2018-11-28T01:59:59.392Z,6.74
2018-11-28T02:02:29.297Z,6.66
2018-11-28T04:33:40.772Z,5.87
2018-11-28T04:36:10.656Z,5.98
2018-11-28T04:38:40.575Z,6.06
2018-11-28T04:41:10.509Z,6.11
2018-11-28T04:43:40.431Z,6.16
2018-11-28T04:46:10.352Z,6.13
2018-11-28T04:48:40.254Z,6.16
2018-11-28T04:51:10.195Z,6.12
2018-11-28T04:53:40.095Z,6.29
2018-11-28T04:56:10.013Z,6.23
2018-11-28T04:58:39.917Z,6.14
2018-11-28T05:01:10.469Z,6.15
2018-11-28T05:03:40.621Z,6.22
2018-11-28T05:06:10.809Z,6.25
2018-11-28T05:08:40.700Z,6.20
2018-11-28T05:11:10.625Z,6.27
2018-11-28T05:13:41.023Z,6.26
2018-11-28T05:16:11.009Z,6.23
2018-11-28T05:18:41.032Z,6.17
2018-11-28T05:21:11.021Z,6.29
2018-11-28T05:23:40.926Z,6.28
2018-11-28T05:26:10.856Z,6.29
2018-11-28T05:28:40.858Z,6.31
2018-11-28T05:31:10.893Z,6.18
2018-11-28T05:33:40.822Z,6.17
2018-11-28T05:36:16.849Z,6.21
2018-11-28T05:38:46.857Z,6.22
2018-11-28T05:41:16.864Z,6.15
2018-11-28T05:43:46.924Z,6.15
2018-11-28T05:46:16.909Z,6.09
2018-11-28T05:48:46.831Z,6.14
2018-11-28T05:51:16.831Z,6.15
2018-11-28T05:53:46.721Z,6.09
2018-11-28T05:56:16.761Z,6.17
2018-11-28T05:58:46.672Z,6.18
2018-11-28T06:01:16.632Z,6.14
2018-11-28T06:03:46.552Z,6.00
2018-11-28T06:06:16.662Z,6.09
2018-11-28T06:08:46.699Z,6.09
2018-11-28T06:11:16.598Z,6.13
2018-11-28T06:13:46.530Z,5.98
2018-11-28T06:16:16.465Z,5.99
2018-11-28T06:18:46.447Z,5.98
2018-11-28T06:21:16.457Z,6.01
2018-11-28T06:23:46.377Z,5.78
2018-11-28T06:26:16.303Z,5.91
2018-11-28T06:28:46.203Z,5.99
2018-11-28T06:31:16.121Z,6.05
2018-11-28T06:33:46.012Z,6.08
2018-11-28T06:36:16.053Z,6.04
2018-11-28T06:38:45.966Z,6.03
2018-11-28T06:41:15.993Z,6.00
2018-11-28T06:43:45.892Z,5.95
2018-11-28T06:46:15.810Z,5.92
2018-11-28T06:48:45.812Z,5.97
2018-11-28T06:51:15.748Z,5.98
2018-11-28T06:53:45.644Z,5.98
2018-11-28T06:56:15.569Z,6.05
2018-11-28T06:58:45.491Z,6.10
2018-11-28T07:01:15.405Z,6.09
2018-11-28T07:03:45.280Z,6.05
2018-11-28T07:06:15.205Z,6.26
2018-11-28T07:08:45.121Z,6.23
2018-11-28T07:11:15.055Z,6.27
2018-11-28T07:13:44.961Z,6.14
2018-11-28T07:16:14.899Z,6.10
2018-11-28T07:19:15.008Z,6.13
2018-11-28T07:21:44.985Z,6.11
2018-11-28T07:24:14.919Z,6.14
2018-11-28T07:26:44.868Z,6.15
2018-11-28T07:29:16.574Z,6.12
2018-11-28T07:31:46.513Z,6.10
2018-11-28T07:34:16.404Z,6.11
2018-11-28T07:36:46.323Z,6.12
2018-11-28T07:39:16.221Z,6.19
2018-11-28T07:41:46.121Z,6.20
2018-11-28T07:44:16.028Z,6.25
2018-11-28T07:46:45.961Z,6.33
2018-11-28T07:49:15.858Z,6.35
2018-11-28T07:51:45.768Z,6.37
2018-11-28T07:54:15.744Z,6.34
2018-11-28T07:56:45.752Z,6.31
2018-11-28T07:59:15.645Z,6.33
2018-11-28T08:01:45.564Z,6.34
2018-11-28T08:04:15.504Z,6.41
2018-11-28T08:06:45.547Z,6.38
2018-11-28T08:09:15.479Z,6.32
2018-11-28T08:11:45.386Z,6.27
2018-11-28T08:14:17.024Z,6.24
2018-11-28T08:16:48.151Z,6.25
2018-11-28T08:19:17.021Z,6.34
2018-11-28T08:21:47.160Z,6.33
2018-11-28T08:24:17.089Z,6.33
2018-11-28T08:26:46.994Z,6.36
2018-11-28T08:29:17.188Z,6.53
2018-11-28T08:31:46.996Z,6.53
2018-11-28T08:34:16.925Z,6.55
2018-11-28T08:36:46.804Z,6.57
2018-11-28T08:39:16.741Z,6.58
2018-11-28T08:41:46.642Z,6.64
2018-11-28T08:44:16.562Z,6.67
2018-11-28T08:46:46.461Z,6.56
2018-11-28T08:49:16.377Z,6.57
2018-11-28T08:51:46.264Z,6.59
2018-11-28T08:54:16.182Z,6.58
2018-11-28T08:56:46.073Z,6.63
2018-11-28T08:59:15.978Z,6.72
2018-11-28T09:01:45.862Z,6.75
2018-11-28T09:04:15.770Z,6.80
2018-11-28T09:06:45.660Z,6.96
2018-11-28T09:09:15.608Z,6.98
2018-11-28T09:11:45.477Z,6.91
2018-11-28T09:14:15.376Z,6.90
2018-11-28T09:16:45.270Z,6.97
2018-11-28T09:19:15.176Z,6.97
2018-11-28T09:21:45.080Z,6.97
2018-11-28T09:24:14.994Z,7.02
2018-11-28T09:26:44.885Z,7.04
2018-11-28T09:29:16.864Z,6.94
2018-11-28T09:31:46.758Z,7.05
2018-11-28T09:34:16.691Z,7.13
2018-11-28T09:36:46.593Z,7.11
2018-11-28T09:39:16.510Z,7.19
2018-11-28T09:41:46.451Z,7.12
2018-11-28T09:44:16.359Z,7.13
2018-11-28T09:46:46.278Z,7.22
2018-11-28T09:49:16.188Z,7.19
2018-11-28T09:51:46.084Z,7.30
2018-11-28T09:54:16.000Z,7.29
2018-11-28T09:56:48.744Z,7.28
2018-11-28T09:59:18.656Z,7.42
2018-11-28T10:01:48.559Z,7.44
2018-11-28T10:04:18.742Z,7.51
2018-11-28T10:06:48.893Z,7.60
2018-11-28T10:09:18.846Z,7.59
2018-11-28T10:11:48.743Z,7.67
2018-11-28T10:14:18.665Z,7.74
2018-11-28T10:16:49.175Z,7.72
2018-11-28T10:19:18.497Z,7.80
2018-11-28T10:21:48.389Z,7.90
2018-11-28T10:24:18.320Z,7.95
2018-11-28T10:26:48.220Z,8.00
2018-11-28T10:29:18.910Z,7.94
2018-11-28T10:31:49.317Z,7.86
2018-11-28T10:34:19.222Z,7.97
2018-11-28T10:36:49.146Z,7.99
2018-11-28T10:39:19.053Z,7.97
2018-11-28T10:41:49.024Z,8.00
2018-11-28T10:44:18.922Z,8.07
2018-11-28T10:46:48.828Z,8.06
2018-11-28T10:49:18.739Z,8.18
2018-11-28T10:51:50.374Z,8.17
2018-11-28T10:54:18.630Z,8.24
2018-11-28T10:56:48.553Z,8.32
2018-11-28T10:59:18.444Z,8.32
2018-11-28T11:01:52.294Z,8.37
2018-11-28T11:05:24.810Z,8.44
2018-11-28T11:08:00.042Z,8.34
2018-11-28T11:10:35.305Z,8.43
2018-11-28T11:13:10.496Z,8.52
2018-11-28T11:15:40.410Z,8.56
2018-11-28T11:18:12.384Z,8.50
2018-11-28T11:20:42.361Z,8.64
2018-11-28T11:23:12.256Z,8.79
2018-11-28T11:25:42.178Z,8.81
2018-11-28T11:28:12.101Z,8.79
2018-11-28T11:30:42.021Z,8.84
2018-11-28T11:33:11.951Z,8.85
2018-11-28T11:35:41.864Z,8.91
2018-11-28T11:38:11.838Z,8.92
2018-11-28T11:40:41.696Z,8.93
2018-11-28T11:43:11.869Z,8.92
2018-11-28T11:45:41.760Z,8.98
2018-11-28T11:48:11.682Z,9.10
2018-11-28T11:50:42.432Z,9.24
2018-11-28T11:53:12.433Z,9.29
2018-11-28T11:55:42.274Z,9.31
2018-11-28T11:58:12.216Z,9.41
2018-11-28T12:00:44.248Z,9.35
2018-11-28T12:03:15.302Z,9.34
2018-11-28T12:05:49.721Z,9.38
2018-11-28T12:08:19.629Z,9.53
2018-11-28T12:10:49.570Z,9.48
2018-11-28T12:13:19.506Z,9.50
2018-11-28T12:15:49.404Z,9.56
2018-11-28T12:18:19.345Z,9.60
2018-11-28T12:20:55.409Z,9.70
2018-11-28T12:23:25.355Z,9.64
2018-11-28T12:25:55.289Z,9.59
2018-11-28T12:28:25.192Z,9.53
2018-11-28T12:30:55.596Z,9.52
2018-11-28T12:33:25.521Z,9.54
2018-11-28T12:35:55.448Z,9.52
2018-11-28T12:38:25.377Z,9.41
2018-11-28T12:40:55.521Z,9.39
2018-11-28T12:43:25.450Z,9.38
2018-11-28T12:45:55.356Z,9.47
2018-11-28T12:48:25.252Z,9.46
2018-11-28T12:50:55.161Z,9.52
2018-11-28T12:53:25.056Z,9.46
2018-11-28T12:55:54.954Z,9.45
2018-11-28T12:58:24.859Z,9.38
2018-11-28T13:00:54.740Z,9.46
2018-11-28T13:03:24.654Z,9.46
2018-11-28T13:05:54.548Z,9.50
2018-11-28T13:08:24.448Z,9.51
2018-11-28T13:10:54.357Z,9.45
2018-11-28T13:13:24.245Z,9.38
2018-11-28T13:15:54.186Z,9.42
2018-11-28T13:18:24.076Z,9.49
2018-11-28T13:20:53.972Z,9.44
2018-11-28T13:23:23.881Z,9.45
2018-11-28T13:25:53.785Z,9.43
2018-11-28T13:28:23.668Z,9.48
2018-11-28T13:30:53.571Z,9.39
2018-11-28T13:33:23.456Z,9.43
2018-11-28T13:35:53.408Z,9.52
2018-11-28T13:38:23.323Z,9.56
2018-11-28T13:40:53.308Z,9.52
2018-11-28T13:43:23.505Z,9.49
2018-11-28T13:45:53.417Z,9.54
2018-11-28T13:48:23.380Z,9.56
2018-11-28T13:50:53.285Z,9.55
2018-11-28T13:53:23.182Z,9.57
2018-11-28T13:56:57.369Z,9.63
2018-11-28T13:58:26.209Z,9.53
2018-11-28T14:00:56.170Z,9.57
2018-11-28T14:03:26.077Z,9.55
2018-11-28T14:05:56.058Z,9.55
2018-11-28T14:08:25.982Z,9.55
2018-11-28T14:10:55.892Z,9.60
2018-11-28T14:13:25.810Z,9.55
2018-11-28T14:15:55.702Z,9.54
2018-11-28T14:18:25.604Z,9.57
2018-11-28T14:20:55.519Z,9.57
2018-11-28T14:23:25.456Z,9.56
2018-11-28T14:25:55.398Z,9.57
2018-11-28T14:28:25.300Z,9.58
2018-11-28T14:30:55.192Z,9.49
2018-11-28T14:33:25.108Z,9.56
2018-11-28T14:35:55.008Z,9.53
2018-11-28T14:38:24.915Z,9.48
2018-11-28T14:40:54.812Z,9.49
2018-11-28T14:43:24.828Z,9.48
2018-11-28T14:45:54.734Z,9.45
2018-11-28T14:48:24.636Z,9.34
2018-11-28T14:50:54.533Z,9.35
2018-11-28T14:53:24.456Z,9.37
2018-11-28T14:55:54.413Z,9.37
2018-11-28T14:58:24.312Z,9.37
2018-11-28T15:00:54.296Z,9.46
2018-11-28T15:03:24.336Z,9.41
2018-11-28T15:06:33.972Z,9.39
2018-11-28T15:09:09.131Z,9.23
2018-11-28T15:11:39.065Z,9.30
2018-11-28T15:14:09.032Z,9.35
2018-11-28T15:16:39.153Z,9.32
2018-11-28T15:19:09.061Z,9.26
2018-11-28T15:21:39.625Z,9.34
2018-11-28T15:24:09.538Z,9.28
2018-11-28T15:26:39.438Z,9.30
2018-11-28T15:29:09.360Z,9.20
2018-11-28T15:31:39.342Z,9.23
2018-11-28T15:34:09.340Z,9.20
2018-11-28T15:36:39.228Z,9.26
2018-11-28T15:39:10.355Z,9.25
2018-11-28T15:41:40.247Z,9.20
2018-11-28T15:44:10.157Z,9.18
2018-11-28T15:46:40.269Z,9.14
2018-11-28T15:49:10.188Z,9.12
2018-11-28T15:51:40.304Z,9.14
2018-11-28T15:54:10.249Z,9.11
2018-11-28T15:56:40.240Z,9.18
2018-11-28T15:59:10.183Z,9.07
2018-11-28T16:01:40.156Z,9.12
2018-11-28T16:04:10.090Z,9.13
2018-11-28T16:06:40.003Z,9.10
2018-11-28T16:09:15.226Z,9.15
2018-11-28T16:11:45.153Z,9.10
2018-11-28T16:14:15.210Z,9.08
2018-11-28T16:16:45.105Z,9.01
2018-11-28T16:19:15.039Z,9.03
2018-11-28T16:21:45.086Z,8.99
2018-11-28T16:24:15.012Z,8.98
2018-11-28T16:26:44.984Z,9.04
2018-11-28T16:29:15.122Z,8.99
2018-11-28T16:31:45.025Z,9.03
2018-11-28T16:34:15.050Z,8.98
2018-11-28T16:36:45.012Z,9.05
2018-11-28T16:39:15.166Z,8.98
2018-11-28T16:41:45.057Z,8.97
2018-11-28T16:44:15.049Z,8.93
2018-11-28T16:46:45.000Z,8.93
2018-11-28T16:49:15.000Z,8.98
2018-11-28T16:51:44.900Z,8.89
2018-11-28T16:54:14.805Z,8.85
2018-11-28T16:56:44.730Z,8.82
2018-11-28T16:59:14.696Z,8.87
2018-11-28T17:01:44.594Z,8.89
2018-11-28T17:04:14.508Z,8.87
2018-11-28T17:06:44.391Z,8.92
2018-11-28T17:09:14.356Z,8.78
2018-11-28T17:11:44.249Z,8.80
2018-11-28T17:14:14.156Z,8.70
2018-11-28T17:16:44.040Z,8.73
2018-11-28T17:19:13.955Z,8.74
2018-11-28T17:21:44.147Z,8.70
2018-11-28T17:24:14.064Z,8.68
2018-11-28T17:26:43.953Z,8.71
2018-11-28T17:29:13.873Z,8.70
2018-11-28T17:31:43.781Z,8.64
2018-11-28T17:34:13.730Z,8.66
2018-11-28T17:36:43.617Z,8.54
2018-11-28T17:39:13.768Z,8.59
2018-11-28T17:41:43.741Z,8.63
2018-11-28T17:44:13.677Z,8.60
2018-11-28T17:46:43.573Z,8.61
2018-11-28T17:49:13.544Z,8.55
2018-11-28T17:51:43.444Z,8.59
2018-11-28T17:54:13.355Z,8.51
2018-11-28T17:56:43.258Z,8.52
2018-11-28T17:59:13.182Z,8.45
2018-11-28T18:01:43.060Z,8.37
2018-11-28T18:04:12.998Z,8.38
2018-11-28T18:06:42.875Z,8.33
2018-11-28T18:09:13.082Z,8.41
2018-11-28T18:11:42.982Z,8.41
2018-11-28T18:14:13.112Z,8.42
2018-11-28T18:16:43.015Z,8.28
2018-11-28T18:19:13.214Z,8.27
2018-11-28T18:21:43.147Z,8.20
2018-11-28T18:24:13.233Z,8.23
2018-11-28T18:26:43.179Z,8.16
2018-11-28T18:29:13.149Z,8.18
2018-11-28T18:31:43.062Z,8.19
2018-11-28T18:34:13.164Z,8.11
2018-11-28T18:36:43.052Z,8.11
2018-11-28T18:39:13.106Z,8.07
2018-11-28T18:41:43.126Z,8.08
2018-11-28T18:44:13.310Z,8.12
2018-11-28T18:46:50.000Z,8.06
2018-11-28T18:49:19.994Z,8.06
2018-11-28T18:51:49.932Z,8.09
2018-11-28T18:54:19.852Z,8.01
2018-11-28T18:56:49.740Z,8.04
2018-11-28T18:59:19.686Z,8.09
2018-11-28T19:01:49.629Z,7.98
2018-11-28T19:04:20.089Z,8.05
2018-11-28T19:06:50.061Z,7.97
2018-11-28T19:09:25.309Z,8.09
2018-11-28T19:11:55.196Z,8.05
2018-11-28T19:14:25.222Z,8.01
2018-11-28T19:16:55.152Z,8.02
2018-11-28T19:19:25.247Z,8.05
2018-11-28T19:21:55.225Z,8.00
2018-11-28T19:24:25.188Z,7.98
2018-11-28T19:26:55.157Z,8.00
2018-11-28T19:29:25.170Z,8.05
2018-11-28T19:31:55.224Z,7.88
2018-11-28T19:34:25.140Z,7.87
2018-11-28T19:36:55.128Z,7.93
2018-11-28T19:39:25.001Z,7.92
2018-11-28T19:41:54.937Z,7.89
2018-11-28T19:44:24.840Z,7.92
2018-11-28T19:46:54.904Z,7.96
2018-11-28T19:49:24.804Z,7.94
2018-11-28T19:51:54.825Z,7.92
2018-11-28T19:54:24.797Z,7.99
2018-11-28T19:56:54.735Z,8.06
2018-11-28T19:59:24.736Z,8.10
2018-11-28T20:01:54.661Z,8.18
2018-11-28T20:04:24.646Z,7.97
2018-11-28T20:06:54.663Z,8.07
2018-11-28T20:09:24.577Z,8.14
2018-11-28T20:11:54.517Z,8.14
2018-11-28T20:14:24.457Z,8.12
2018-11-28T20:16:54.560Z,8.09
2018-11-28T20:19:24.441Z,8.19
2018-11-28T20:21:54.425Z,8.21
2018-11-28T20:24:24.390Z,8.17
2018-11-28T20:26:54.373Z,8.19
2018-11-28T20:29:24.272Z,8.10
2018-11-28T20:31:54.190Z,8.03
2018-11-28T20:34:24.374Z,8.10
2018-11-28T20:36:54.419Z,8.16
2018-11-28T20:39:24.591Z,8.21
2018-11-28T20:41:54.537Z,8.22
2018-11-28T20:44:24.651Z,8.19
2018-11-28T20:46:54.696Z,8.12
2018-11-28T20:49:24.889Z,8.16
2018-11-28T20:51:55.112Z,8.16
2018-11-28T20:54:25.189Z,8.17
2018-11-28T20:56:55.344Z,8.04
2018-11-28T20:59:25.534Z,8.12
2018-11-28T21:01:55.806Z,8.23
2018-11-28T21:04:25.897Z,8.23
2018-11-28T21:06:55.829Z,8.22
2018-11-28T21:09:26.736Z,8.31
2018-11-28T21:11:56.677Z,8.19
2018-11-28T21:14:26.723Z,8.12
2018-11-28T21:16:56.640Z,8.18
2018-11-28T21:19:26.801Z,8.25
2018-11-28T21:21:56.717Z,8.28
2018-11-28T21:24:26.821Z,8.22
2018-11-28T21:26:59.737Z,8.15
2018-11-28T21:29:30.004Z,8.36
2018-11-28T21:31:59.985Z,8.32
2018-11-28T21:34:29.901Z,8.39
2018-11-28T21:36:59.810Z,8.31
2018-11-28T21:39:29.776Z,8.30
2018-11-28T21:41:59.745Z,8.33
2018-11-28T21:44:29.953Z,8.33
2018-11-28T21:46:59.862Z,8.33
2018-11-28T21:49:29.944Z,8.27
2018-11-28T21:51:59.937Z,8.30
2018-11-28T21:54:29.975Z,8.26
2018-11-28T21:56:59.897Z,8.33
2018-11-28T21:59:30.010Z,8.35
2018-11-28T22:01:59.978Z,8.46
2018-11-28T22:04:30.105Z,8.30
2018-11-28T22:07:00.000Z,8.26
2018-11-28T22:09:33.881Z,8.28
2018-11-28T22:12:03.842Z,8.22
2018-11-28T22:14:33.846Z,8.40
2018-11-28T22:17:03.755Z,8.26
2018-11-28T22:19:33.657Z,8.22
2018-11-28T22:22:03.583Z,8.25
2018-11-28T22:24:33.770Z,8.36
2018-11-28T22:27:03.663Z,8.34
2018-11-28T22:29:34.307Z,8.33
2018-11-28T22:32:04.417Z,8.32
2018-11-28T22:34:34.275Z,8.31
2018-11-28T22:37:04.198Z,8.35
2018-11-28T22:39:34.088Z,8.38
2018-11-28T22:42:04.001Z,8.35
2018-11-28T22:44:33.905Z,8.61
2018-11-28T22:47:03.813Z,8.58
2018-11-28T22:49:33.808Z,8.52
2018-11-28T22:52:04.115Z,8.54
2018-11-28T22:54:34.100Z,8.51
2018-11-28T22:57:04.043Z,8.51
2018-11-28T22:59:34.170Z,8.48
2018-11-28T23:02:57.154Z,8.51
2018-11-28T23:05:31.289Z,8.47
2018-11-28T23:08:02.709Z,8.45
2018-11-28T23:10:32.709Z,8.35
2018-11-28T23:13:02.612Z,8.36
2018-11-28T23:15:32.589Z,8.38
2018-11-28T23:18:02.484Z,8.49
2018-11-28T23:20:32.401Z,8.50
2018-11-28T23:23:02.377Z,8.57
2018-11-28T23:25:32.293Z,8.58
2018-11-28T23:28:02.198Z,8.62
2018-11-28T23:30:32.149Z,8.57
2018-11-28T23:33:02.261Z,8.38
2018-11-28T23:35:32.525Z,8.43
2018-11-28T23:38:02.427Z,8.51
2018-11-28T23:40:32.320Z,8.57
2018-11-28T23:43:02.433Z,8.51
2018-11-28T23:45:32.469Z,8.50
2018-11-28T23:48:02.461Z,8.43
2018-11-28T23:50:32.362Z,8.44
2018-11-28T23:53:02.278Z,8.48
2018-11-28T23:55:32.607Z,8.55
2018-11-28T23:58:02.507Z,8.59
